Minchumina Intermediate Airport

About
Name: Minchumina Intermediate Airport
Identifier:  MHM/PAMH
Serves:  Lake Minchumina, Alaska
Owner:  State of Alaska DOT&PF
Public/Private:  Public
Local Time:  20. Aug 05:46 AKDT
Description: Minchumina Airport is a state owned, public use airport serving Lake Minchumina, in the Yukon-Koyukuk Census Area of the U.S. state of Alaska. It is also known as Lake Minchumina Airport.[3][4] In the past, the airport used MHM IATA code.
Source: Wikipedia
Location
Runways
Identifier Length (m/ft) Surface
3/21 4,184/4,184 Gravel
Flights per Day
0 flights
Distance: 4,662km (2,896mi)
Current Weather
 6 C (Humidity: 81%)
  0kt (0km/h / 0mph) from 0°
  16km (10 mi.)
 
 METAR PAMH 201256Z AUTO 00000KT 10SM CLR 06/03 A2986 RMK AO2 SLP865 T00610028

Current Flights

Departures
Number Departure To Airline
Arrivals
Number Arrival From Airline

Current Delays

Departures
N/A
Arrivals
N/A